Terminal Aerodrome Forecast
Issued by NWS Omaha/Valley, NE

Home | Current Version | Previous Version | Text Only | Print | Product List | Glossary On
Versions: 1 2 3 4 5 6 7 8 9 10 11 12 13 14 15 16 17 18 19 20 21 22 23 24 25 26 27 28 29 30 31
000
FTUS43 KOAX 251332 AAA
TAFOFK
TAF AMD
KOFK 251332Z 2514/2612 12008KT P6SM SCT250
     FM251500 VRB05KT P6SM SCT250
     FM251700 31007KT P6SM SCT050
     FM252100 34010KT P6SM SCT050
     FM260000 35006KT P6SM BKN250=

USA.gov is the U.S. government's official web portal to all federal, state and local government web resources and services.